createdAt,value
2017-03-02T00:00:38.183Z,981.56
2017-03-02T00:01:38.209Z,981.49
2017-03-02T00:02:38.233Z,981.4
2017-03-02T00:03:38.262Z,981.43
2017-03-02T00:04:38.290Z,981.43
2017-03-02T00:05:38.311Z,981.42
2017-03-02T00:06:38.343Z,981.42
2017-03-02T00:07:38.368Z,981.44
2017-03-02T00:08:38.397Z,981.45
2017-03-02T00:09:38.426Z,981.48
2017-03-02T00:10:38.451Z,981.51
2017-03-02T00:11:38.726Z,981.57
2017-03-02T00:12:38.508Z,981.62
2017-03-02T00:13:38.532Z,981.61
2017-03-02T00:14:38.560Z,981.57
2017-03-02T00:15:38.584Z,981.63
2017-03-02T00:16:38.866Z,981.65
2017-03-02T00:17:38.654Z,981.66
2017-03-02T00:18:38.667Z,981.69
2017-03-02T00:19:38.696Z,981.63
2017-03-02T00:20:38.725Z,981.61
2017-03-02T00:21:38.995Z,981.65
2017-03-02T00:22:38.778Z,981.74
2017-03-02T00:23:38.810Z,981.74
2017-03-02T00:24:38.832Z,981.7
2017-03-02T00:25:38.861Z,981.73
2017-03-02T00:26:38.885Z,981.74
2017-03-02T00:27:38.914Z,981.8
2017-03-02T00:28:38.939Z,981.72
2017-03-02T00:29:38.967Z,981.7
2017-03-02T00:30:38.997Z,981.67
2017-03-02T00:31:39.024Z,981.7
2017-03-02T00:32:39.050Z,981.66
2017-03-02T00:33:39.078Z,981.69
2017-03-02T00:34:39.104Z,981.69
2017-03-02T00:35:39.132Z,981.67
2017-03-02T00:36:39.155Z,981.67
2017-03-02T00:37:39.186Z,981.76
2017-03-02T00:38:39.216Z,981.69
2017-03-02T00:39:39.234Z,981.7
2017-03-02T00:40:39.263Z,981.68
2017-03-02T00:41:39.296Z,981.74
2017-03-02T00:42:39.317Z,981.8
2017-03-02T00:43:39.349Z,981.78
2017-03-02T00:44:39.374Z,981.84
2017-03-02T00:45:39.403Z,981.81
2017-03-02T00:46:39.431Z,981.82
2017-03-02T00:47:39.453Z,981.87
2017-03-02T00:48:39.486Z,981.9
2017-03-02T00:49:39.510Z,981.94
2017-03-02T00:50:39.537Z,981.96
2017-03-02T00:51:39.567Z,982.04
2017-03-02T00:52:39.591Z,982.1
2017-03-02T00:53:39.620Z,982.12
2017-03-02T00:54:39.649Z,982.13
2017-03-02T00:55:39.673Z,982.15
2017-03-02T00:56:39.702Z,982.14
2017-03-02T00:57:39.727Z,982.18
2017-03-02T00:58:39.779Z,982.25
2017-03-02T00:59:39.785Z,982.26
2017-03-02T01:00:39.810Z,982.21
2017-03-02T01:01:39.834Z,982.28
2017-03-02T01:02:39.863Z,982.26
2017-03-02T01:03:39.891Z,982.33
2017-03-02T01:04:39.920Z,982.39
2017-03-02T01:05:39.945Z,982.31
2017-03-02T01:06:39.976Z,982.38
2017-03-02T01:07:40.004Z,982.35
2017-03-02T01:08:40.027Z,982.36
2017-03-02T01:09:40.056Z,982.41
2017-03-02T01:10:40.078Z,982.47
2017-03-02T01:11:40.110Z,982.44
2017-03-02T01:12:40.135Z,982.53
2017-03-02T01:13:40.162Z,982.5
2017-03-02T01:14:40.192Z,982.45
2017-03-02T01:15:40.215Z,982.46
2017-03-02T01:16:40.241Z,982.49
2017-03-02T01:17:40.270Z,982.49
2017-03-02T01:18:40.300Z,982.5
2017-03-02T01:19:40.328Z,982.53
2017-03-02T01:20:40.353Z,982.51
2017-03-02T01:21:40.381Z,982.48
2017-03-02T01:22:40.406Z,982.55
2017-03-02T01:23:40.435Z,982.49
2017-03-02T01:24:40.463Z,982.44
2017-03-02T01:25:40.488Z,982.45
2017-03-02T01:26:40.516Z,982.45
2017-03-02T01:27:40.546Z,982.41
2017-03-02T01:28:40.570Z,982.47
2017-03-02T01:29:40.600Z,982.51
2017-03-02T01:30:40.624Z,982.5
2017-03-02T01:31:40.653Z,982.48
2017-03-02T01:32:40.685Z,982.52
2017-03-02T01:33:40.707Z,982.55
2017-03-02T01:34:40.735Z,982.49
2017-03-02T01:35:40.760Z,982.52
2017-03-02T01:36:40.788Z,982.58
2017-03-02T01:37:40.818Z,982.64
2017-03-02T01:38:40.843Z,982.63
2017-03-02T01:39:40.871Z,982.66
2017-03-02T01:40:40.900Z,982.68
2017-03-02T01:41:40.925Z,982.66
2017-03-02T01:42:40.954Z,982.64
2017-03-02T01:43:40.979Z,982.68
2017-03-02T01:44:41.007Z,982.73
2017-03-02T01:45:41.033Z,982.7
2017-03-02T01:46:41.062Z,982.76
2017-03-02T01:47:41.085Z,982.78
2017-03-02T01:48:41.114Z,982.8
2017-03-02T01:49:41.142Z,982.85
2017-03-02T01:50:41.167Z,982.86
2017-03-02T01:51:41.195Z,982.9
2017-03-02T01:52:41.222Z,982.91
2017-03-02T01:53:41.253Z,982.91
2017-03-02T01:54:41.281Z,982.89
2017-03-02T01:55:41.303Z,983.01
2017-03-02T01:56:41.333Z,982.96
2017-03-02T01:57:41.357Z,983.02
2017-03-02T01:58:41.385Z,983.03
2017-03-02T01:59:41.414Z,983
2017-03-02T02:00:41.438Z,982.98
2017-03-02T02:01:41.469Z,983.07
2017-03-02T02:02:41.493Z,983.03
2017-03-02T02:03:41.522Z,983.09
2017-03-02T02:04:41.550Z,983.17
2017-03-02T02:05:41.577Z,983.12
2017-03-02T02:06:41.604Z,983.12
2017-03-02T02:07:41.629Z,983.17
2017-03-02T02:08:41.658Z,983.28
2017-03-02T02:09:41.686Z,983.22
2017-03-02T02:10:41.712Z,983.32
2017-03-02T02:11:41.739Z,983.25
2017-03-02T02:12:41.764Z,983.31
2017-03-02T02:13:41.793Z,983.33
2017-03-02T02:14:41.818Z,983.35
2017-03-02T02:15:41.847Z,983.51
2017-03-02T02:16:41.872Z,983.43
2017-03-02T02:17:42.152Z,983.56
2017-03-02T02:18:41.930Z,983.52
2017-03-02T02:19:41.954Z,983.58
2017-03-02T02:20:41.982Z,983.56
2017-03-02T02:21:42.008Z,983.57
2017-03-02T02:22:42.288Z,983.54
2017-03-02T02:23:42.061Z,983.66
2017-03-02T02:24:42.090Z,983.65
2017-03-02T02:25:42.119Z,983.67
2017-03-02T02:26:42.144Z,983.71
2017-03-02T02:27:42.423Z,983.69
2017-03-02T02:28:42.197Z,983.72
2017-03-02T02:29:42.226Z,983.79
2017-03-02T02:30:42.254Z,983.78
2017-03-02T02:31:42.279Z,983.9
2017-03-02T02:32:42.560Z,983.82
2017-03-02T02:33:42.329Z,983.81
2017-03-02T02:34:42.362Z,983.84
2017-03-02T02:35:42.387Z,983.8
2017-03-02T02:36:42.419Z,983.92
2017-03-02T02:37:42.695Z,983.9
2017-03-02T02:38:42.469Z,983.91
2017-03-02T02:39:42.498Z,984.05
2017-03-02T02:40:42.522Z,984.06
2017-03-02T02:41:42.551Z,984.03
2017-03-02T02:42:42.828Z,983.97
2017-03-02T02:43:42.605Z,984.08
2017-03-02T02:44:42.631Z,984.03
2017-03-02T02:45:42.659Z,984.02
2017-03-02T02:46:42.687Z,984.05
2017-03-02T02:47:42.963Z,984.09
2017-03-02T02:48:42.740Z,984.09
2017-03-02T02:49:42.765Z,984.08
2017-03-02T02:50:42.794Z,984.09
2017-03-02T02:51:42.821Z,984.16
2017-03-02T02:52:42.847Z,984.27
2017-03-02T02:53:42.872Z,984.25
2017-03-02T02:54:42.897Z,984.27
2017-03-02T02:55:42.926Z,984.21
2017-03-02T02:56:42.955Z,984.27
2017-03-02T02:57:42.983Z,984.23
2017-03-02T02:58:43.008Z,984.27
2017-03-02T02:59:43.037Z,984.29
2017-03-02T03:00:43.063Z,984.18
2017-03-02T03:01:43.091Z,984.25
2017-03-02T03:02:43.115Z,984.27
2017-03-02T03:03:43.142Z,984.36
2017-03-02T03:04:43.173Z,984.29
2017-03-02T03:05:43.197Z,984.35
2017-03-02T03:06:43.227Z,984.38
2017-03-02T03:07:43.251Z,984.38
2017-03-02T03:08:43.280Z,984.44
2017-03-02T03:09:43.305Z,984.41
2017-03-02T03:10:43.333Z,984.42
2017-03-02T03:11:43.358Z,984.49
2017-03-02T03:12:43.387Z,984.43
2017-03-02T03:13:43.412Z,984.45
2017-03-02T03:14:43.441Z,984.44
2017-03-02T03:15:43.469Z,984.47
2017-03-02T03:16:43.494Z,984.41
2017-03-02T03:17:43.525Z,984.52
2017-03-02T03:18:43.548Z,984.48
2017-03-02T03:19:43.572Z,984.51
2017-03-02T03:20:43.601Z,984.52
2017-03-02T03:21:43.630Z,984.53
2017-03-02T03:22:43.655Z,984.56
2017-03-02T03:23:43.679Z,984.51
2017-03-02T03:24:43.708Z,984.51
2017-03-02T03:25:43.733Z,984.6
2017-03-02T03:26:43.761Z,984.61
2017-03-02T03:27:43.791Z,984.7
2017-03-02T03:28:43.815Z,984.68
2017-03-02T03:29:43.844Z,984.71
2017-03-02T03:30:43.873Z,984.78
2017-03-02T03:31:43.897Z,984.79
2017-03-02T03:32:43.922Z,984.89
2017-03-02T03:33:43.952Z,984.75
2017-03-02T03:34:43.975Z,984.87
2017-03-02T03:35:44.005Z,984.82
2017-03-02T03:36:44.029Z,984.8
2017-03-02T03:37:44.057Z,984.87
2017-03-02T03:38:44.087Z,984.84
2017-03-02T03:39:44.110Z,984.87
2017-03-02T03:40:44.140Z,984.92
2017-03-02T03:41:44.168Z,984.85
2017-03-02T03:42:44.193Z,984.8
2017-03-02T03:43:44.219Z,984.84
2017-03-02T03:44:44.246Z,984.92
2017-03-02T03:45:44.273Z,985.07
2017-03-02T03:46:44.302Z,984.91
2017-03-02T03:47:44.325Z,984.95
2017-03-02T03:48:44.354Z,985
2017-03-02T03:49:44.383Z,985.01
2017-03-02T03:50:44.408Z,985.03
2017-03-02T03:51:44.432Z,985.05
2017-03-02T03:52:44.461Z,985.13
2017-03-02T03:53:44.486Z,985.17
2017-03-02T03:54:44.515Z,985.17
2017-03-02T03:55:44.560Z,985.16
2017-03-02T03:56:44.564Z,985.17
2017-03-02T03:57:44.593Z,985.31
2017-03-02T03:58:44.873Z,985.29
2017-03-02T03:59:44.649Z,985.29
2017-03-02T04:00:44.677Z,985.31
2017-03-02T04:01:44.700Z,985.44
2017-03-02T04:02:44.728Z,985.46
2017-03-02T04:03:45.008Z,985.36
2017-03-02T04:04:44.782Z,985.51
2017-03-02T04:05:44.811Z,985.45
2017-03-02T04:06:44.834Z,985.45
2017-03-02T04:07:44.859Z,985.5
2017-03-02T04:08:44.888Z,985.52
2017-03-02T04:09:44.918Z,985.55
2017-03-02T04:10:44.942Z,985.54
2017-03-02T04:11:44.967Z,985.6
2017-03-02T04:12:44.992Z,985.61
2017-03-02T04:13:45.025Z,985.62
2017-03-02T04:14:45.050Z,985.67
2017-03-02T04:15:45.078Z,985.68
2017-03-02T04:16:45.107Z,985.65
2017-03-02T04:17:45.131Z,985.63
2017-03-02T04:18:45.156Z,985.66
2017-03-02T04:19:45.185Z,985.66
2017-03-02T04:20:45.209Z,985.81
2017-03-02T04:21:45.238Z,985.77
2017-03-02T04:22:45.259Z,985.75
2017-03-02T04:23:45.291Z,985.78
2017-03-02T04:24:45.316Z,985.86
2017-03-02T04:25:45.344Z,985.88
2017-03-02T04:26:45.369Z,985.89
2017-03-02T04:27:45.396Z,985.92
2017-03-02T04:28:45.430Z,985.94
2017-03-02T04:29:45.451Z,986.01
2017-03-02T04:30:45.476Z,985.99
2017-03-02T04:31:45.505Z,986
2017-03-02T04:32:45.530Z,986.04
2017-03-02T04:33:45.558Z,986.08
2017-03-02T04:34:45.582Z,986.06
2017-03-02T04:35:45.611Z,986.12
2017-03-02T04:36:45.636Z,986.16
2017-03-02T04:37:45.665Z,986.16
2017-03-02T04:38:45.686Z,986.19
2017-03-02T04:39:45.717Z,986.28
2017-03-02T04:40:45.743Z,986.17
2017-03-02T04:41:45.772Z,986.21
2017-03-02T04:42:45.797Z,986.26
2017-03-02T04:43:45.825Z,986.25
2017-03-02T04:44:45.850Z,986.21
2017-03-02T04:45:45.874Z,986.22
2017-03-02T04:46:45.903Z,986.36
2017-03-02T04:47:45.931Z,986.35
2017-03-02T04:48:45.957Z,986.33
2017-03-02T04:49:45.986Z,986.29
2017-03-02T04:50:46.010Z,986.3
2017-03-02T04:51:46.039Z,986.33
2017-03-02T04:52:46.063Z,986.34
2017-03-02T04:53:46.093Z,986.36
2017-03-02T04:54:46.118Z,986.35
2017-03-02T04:55:46.146Z,986.36
2017-03-02T04:56:46.167Z,986.4
2017-03-02T04:57:46.199Z,986.4
2017-03-02T04:58:46.224Z,986.5
2017-03-02T04:59:46.250Z,986.42
2017-03-02T05:00:46.282Z,986.57
2017-03-02T05:01:46.306Z,986.52
2017-03-02T05:02:46.331Z,986.55
2017-03-02T05:03:46.354Z,986.54
2017-03-02T05:04:46.384Z,986.48
2017-03-02T05:05:46.405Z,986.6
2017-03-02T05:06:46.438Z,986.59
2017-03-02T05:07:46.463Z,986.63
2017-03-02T05:08:46.493Z,986.61
2017-03-02T05:09:46.518Z,986.65
2017-03-02T05:10:46.546Z,986.62
2017-03-02T05:11:46.569Z,986.7
2017-03-02T05:12:46.599Z,986.68
2017-03-02T05:13:46.623Z,986.76
2017-03-02T05:14:46.653Z,986.82
2017-03-02T05:15:46.677Z,986.77
2017-03-02T05:16:46.707Z,986.8
2017-03-02T05:17:46.730Z,986.92
2017-03-02T05:18:46.755Z,986.85
2017-03-02T05:19:46.784Z,986.85
2017-03-02T05:20:46.806Z,986.91
2017-03-02T05:21:46.837Z,986.97
2017-03-02T05:22:46.863Z,986.76
2017-03-02T05:23:46.892Z,986.97
2017-03-02T05:24:46.913Z,986.9
2017-03-02T05:25:46.945Z,987.05
2017-03-02T05:26:46.973Z,986.98
2017-03-02T05:27:46.998Z,987.02
2017-03-02T05:28:47.023Z,986.95
2017-03-02T05:29:47.051Z,987
2017-03-02T05:30:47.076Z,986.95
2017-03-02T05:31:47.097Z,986.97
2017-03-02T05:32:47.130Z,987
2017-03-02T05:33:47.155Z,987.01
2017-03-02T05:34:47.183Z,986.99
2017-03-02T05:35:47.207Z,987.02
2017-03-02T05:36:47.237Z,987.03
2017-03-02T05:37:47.258Z,987.02
2017-03-02T05:38:47.290Z,987.03
2017-03-02T05:39:47.562Z,987.08
2017-03-02T05:40:47.338Z,987.02
2017-03-02T05:41:47.368Z,987.03
2017-03-02T05:42:47.393Z,986.94
2017-03-02T05:43:47.422Z,987.02
2017-03-02T05:44:47.695Z,987.01
2017-03-02T05:45:47.476Z,987.03
2017-03-02T05:46:47.500Z,987.07
2017-03-02T05:47:47.529Z,987.1
2017-03-02T05:48:47.553Z,987.05
2017-03-02T05:49:47.834Z,987.1
2017-03-02T05:50:47.607Z,987.19
2017-03-02T05:51:47.632Z,987.17
2017-03-02T05:52:47.661Z,987.17
2017-03-02T05:53:47.686Z,987.26
2017-03-02T05:54:47.962Z,987.26
2017-03-02T05:55:47.740Z,987.35
2017-03-02T05:56:47.765Z,987.37
2017-03-02T05:57:47.789Z,987.41
2017-03-02T05:58:47.823Z,987.39
2017-03-02T05:59:48.097Z,987.46
2017-03-02T06:00:47.875Z,987.37
2017-03-02T06:01:47.899Z,987.5
2017-03-02T06:02:47.924Z,987.56
2017-03-02T06:03:47.953Z,987.52
2017-03-02T06:04:47.977Z,987.59
2017-03-02T06:05:48.006Z,987.61
2017-03-02T06:06:48.039Z,987.65
2017-03-02T06:07:48.055Z,987.6
2017-03-02T06:08:48.085Z,987.75
2017-03-02T06:09:48.113Z,987.75
2017-03-02T06:10:48.138Z,987.74
2017-03-02T06:11:48.167Z,987.75
2017-03-02T06:12:48.196Z,987.8
2017-03-02T06:13:48.221Z,987.87
2017-03-02T06:14:48.250Z,987.82
2017-03-02T06:15:48.274Z,987.84
2017-03-02T06:16:48.299Z,987.82
2017-03-02T06:17:48.328Z,987.9
2017-03-02T06:18:48.356Z,987.9
2017-03-02T06:19:48.382Z,987.93
2017-03-02T06:20:48.406Z,988.02
2017-03-02T06:21:48.435Z,988.02
2017-03-02T06:22:48.460Z,988.03
2017-03-02T06:23:48.491Z,988.04
2017-03-02T06:24:48.512Z,988.02
2017-03-02T06:25:48.542Z,988.06
2017-03-02T06:26:48.566Z,988.09
2017-03-02T06:27:48.595Z,988.11
2017-03-02T06:28:48.616Z,988.1
2017-03-02T06:29:48.650Z,988.18
2017-03-02T06:30:48.673Z,988.16
2017-03-02T06:31:48.703Z,988.16
2017-03-02T06:32:48.727Z,988.16
2017-03-02T06:33:48.756Z,988.18
2017-03-02T06:34:48.781Z,988.22
2017-03-02T06:35:48.809Z,988.25
2017-03-02T06:36:48.833Z,988.28
2017-03-02T06:37:48.858Z,988.3
2017-03-02T06:38:48.887Z,988.32
2017-03-02T06:39:48.916Z,988.32
2017-03-02T06:40:48.943Z,988.33
2017-03-02T06:41:48.969Z,988.34
2017-03-02T06:42:48.989Z,988.38
2017-03-02T06:43:49.023Z,988.32
2017-03-02T06:44:49.046Z,988.42
2017-03-02T06:45:49.073Z,988.4
2017-03-02T06:46:49.102Z,988.36
2017-03-02T06:47:49.130Z,988.49
2017-03-02T06:48:49.155Z,988.54
2017-03-02T06:49:49.184Z,988.48
2017-03-02T06:50:49.207Z,988.57
2017-03-02T06:51:49.238Z,988.55
2017-03-02T06:52:49.261Z,988.59
2017-03-02T06:53:49.289Z,988.6
2017-03-02T06:54:49.318Z,988.63
2017-03-02T06:55:49.342Z,988.7
2017-03-02T06:56:49.371Z,988.72
2017-03-02T06:57:49.396Z,988.71
2017-03-02T06:58:49.425Z,988.74
2017-03-02T06:59:49.450Z,988.77
2017-03-02T07:00:49.489Z,988.72
2017-03-02T07:01:49.504Z,988.81
2017-03-02T07:02:49.532Z,988.75
2017-03-02T07:03:49.559Z,988.81
2017-03-02T07:04:49.585Z,988.88
2017-03-02T07:05:49.607Z,988.93
2017-03-02T07:06:49.640Z,989.01
2017-03-02T07:07:49.665Z,989.04
2017-03-02T07:08:49.693Z,989.1
2017-03-02T07:09:49.722Z,989.07
2017-03-02T07:10:49.743Z,989.06
2017-03-02T07:11:49.776Z,989.13
2017-03-02T07:12:49.800Z,989.16
2017-03-02T07:13:49.829Z,989.18
2017-03-02T07:14:49.853Z,989.13
2017-03-02T07:15:49.878Z,989.27
2017-03-02T07:16:49.911Z,989.26
2017-03-02T07:17:49.936Z,989.25
2017-03-02T07:18:49.963Z,989.28
2017-03-02T07:19:49.992Z,989.3
2017-03-02T07:20:50.019Z,989.28
2017-03-02T07:21:50.049Z,989.27
2017-03-02T07:22:50.076Z,989.29
2017-03-02T07:23:50.100Z,989.29
2017-03-02T07:24:50.130Z,989.2
2017-03-02T07:25:50.158Z,989.27
2017-03-02T07:26:50.181Z,989.35
2017-03-02T07:27:50.210Z,989.33
2017-03-02T07:28:50.240Z,989.32
2017-03-02T07:29:50.264Z,989.42
2017-03-02T07:30:50.289Z,989.4
2017-03-02T07:31:50.322Z,989.43
2017-03-02T07:32:50.347Z,989.45
2017-03-02T07:33:50.376Z,989.51
2017-03-02T07:34:50.404Z,989.54
2017-03-02T07:35:50.436Z,989.38
2017-03-02T07:36:50.457Z,989.53
2017-03-02T07:37:50.485Z,989.56
2017-03-02T07:38:50.511Z,989.52
2017-03-02T07:39:50.539Z,989.59
2017-03-02T07:40:50.568Z,989.5
2017-03-02T07:41:50.597Z,989.53
2017-03-02T07:42:50.622Z,989.57
2017-03-02T07:43:50.651Z,989.63
2017-03-02T07:44:50.677Z,989.59
2017-03-02T07:45:50.700Z,989.61
2017-03-02T07:46:50.731Z,989.59
2017-03-02T07:47:50.762Z,989.6
2017-03-02T07:48:50.785Z,989.57
2017-03-02T07:49:50.815Z,989.67
2017-03-02T07:50:50.842Z,989.66
2017-03-02T07:51:50.868Z,989.69
2017-03-02T07:52:50.897Z,989.72
2017-03-02T07:53:50.925Z,989.8
2017-03-02T07:54:50.950Z,989.72
2017-03-02T07:55:50.998Z,989.72
2017-03-02T07:56:51.003Z,989.69
2017-03-02T07:57:51.032Z,989.68
2017-03-02T07:58:51.061Z,989.73
2017-03-02T07:59:51.084Z,989.72
2017-03-02T08:00:51.116Z,989.82
2017-03-02T08:01:51.147Z,989.79
2017-03-02T08:02:51.167Z,989.84
2017-03-02T08:03:51.196Z,989.82
2017-03-02T08:04:51.228Z,989.86
2017-03-02T08:05:51.250Z,989.87
2017-03-02T08:06:51.279Z,989.88
2017-03-02T08:07:51.304Z,989.92
2017-03-02T08:08:51.332Z,989.98
2017-03-02T08:09:51.355Z,989.95
2017-03-02T08:10:51.638Z,990.07
2017-03-02T08:11:51.415Z,990.03
2017-03-02T08:12:51.439Z,989.97
2017-03-02T08:13:51.468Z,990.03
2017-03-02T08:14:51.493Z,990.21
2017-03-02T08:15:51.773Z,990.1
2017-03-02T08:16:51.550Z,990.21
2017-03-02T08:17:51.576Z,990
2017-03-02T08:18:51.605Z,990.18
2017-03-02T08:19:51.629Z,990.07
2017-03-02T08:20:51.909Z,990.08
2017-03-02T08:21:51.682Z,990.11
2017-03-02T08:22:51.711Z,990.2
2017-03-02T08:23:51.744Z,990.12
2017-03-02T08:24:51.764Z,990.12
2017-03-02T08:25:52.045Z,990.19
2017-03-02T08:26:51.818Z,990.21
2017-03-02T08:27:51.847Z,990.24
2017-03-02T08:28:51.875Z,990.19
2017-03-02T08:29:51.930Z,990.24
2017-03-02T08:30:52.180Z,990.18
2017-03-02T08:31:51.955Z,990.33
2017-03-02T08:32:51.983Z,990.08
2017-03-02T08:33:52.007Z,990.3
2017-03-02T08:34:52.035Z,990.32
2017-03-02T08:35:52.059Z,990.35
2017-03-02T08:36:52.089Z,990.3
2017-03-02T08:37:52.118Z,990.28
2017-03-02T08:38:52.142Z,990.31
2017-03-02T08:39:52.172Z,990.35
2017-03-02T08:40:52.196Z,990.48
2017-03-02T08:41:52.225Z,990.57
2017-03-02T08:42:52.250Z,990.42
2017-03-02T08:43:52.275Z,990.32
2017-03-02T08:44:52.309Z,990.5
2017-03-02T08:45:52.332Z,990.53
2017-03-02T08:46:52.361Z,990.49
2017-03-02T08:47:52.386Z,990.49
2017-03-02T08:48:52.415Z,990.55
2017-03-02T08:49:52.439Z,990.64
2017-03-02T08:50:52.467Z,990.46
2017-03-02T08:51:52.497Z,990.54
2017-03-02T08:52:52.516Z,990.76
2017-03-02T08:53:52.578Z,990.67
2017-03-02T08:54:52.574Z,990.76
2017-03-02T08:55:52.603Z,990.68
2017-03-02T08:56:52.628Z,990.65
2017-03-02T08:57:52.657Z,990.62
2017-03-02T08:58:52.682Z,990.76
2017-03-02T08:59:52.710Z,990.72
2017-03-02T09:00:52.734Z,990.71
2017-03-02T09:01:52.762Z,990.66
2017-03-02T09:02:52.789Z,990.79
2017-03-02T09:03:52.819Z,990.78
2017-03-02T09:04:52.846Z,990.75
2017-03-02T09:05:52.873Z,990.83
2017-03-02T09:06:52.902Z,990.81
2017-03-02T09:07:52.924Z,990.84
2017-03-02T09:08:52.953Z,990.79
2017-03-02T09:09:52.982Z,990.84
2017-03-02T09:10:53.002Z,990.89
2017-03-02T09:11:53.036Z,990.67
2017-03-02T09:12:53.061Z,990.79
2017-03-02T09:13:53.089Z,990.89
2017-03-02T09:14:53.111Z,990.93
2017-03-02T09:15:53.142Z,990.82
2017-03-02T09:16:53.168Z,990.78
2017-03-02T09:17:53.195Z,990.76
2017-03-02T09:18:53.218Z,990.87
2017-03-02T09:19:53.249Z,990.83
2017-03-02T09:20:53.278Z,990.68
2017-03-02T09:21:53.296Z,990.72
2017-03-02T09:22:53.332Z,990.74
2017-03-02T09:23:53.352Z,990.83
2017-03-02T09:24:53.385Z,990.88
2017-03-02T09:25:53.410Z,990.87
2017-03-02T09:26:53.439Z,990.85
2017-03-02T09:27:53.467Z,990.94
2017-03-02T09:28:53.492Z,990.92
2017-03-02T09:29:53.521Z,990.98
2017-03-02T09:30:53.546Z,991.04
2017-03-02T09:31:53.575Z,990.96
2017-03-02T09:32:53.598Z,991.02
2017-03-02T09:33:53.629Z,990.89
2017-03-02T09:34:53.657Z,990.97
2017-03-02T09:35:53.679Z,991.1
2017-03-02T09:36:53.709Z,991.11
2017-03-02T09:37:53.735Z,990.97
2017-03-02T09:38:53.760Z,990.94
2017-03-02T09:39:53.792Z,990.98
2017-03-02T09:40:53.817Z,991.15
2017-03-02T09:41:54.097Z,991.12
2017-03-02T09:42:53.870Z,991.22
2017-03-02T09:43:53.899Z,991.11
2017-03-02T09:44:53.924Z,991.2
2017-03-02T09:45:53.951Z,991.2
2017-03-02T09:46:54.229Z,991.16
2017-03-02T09:47:54.007Z,991.27
2017-03-02T09:48:54.035Z,991.4
2017-03-02T09:49:54.060Z,991.28
2017-03-02T09:50:54.088Z,991.27
2017-03-02T09:51:54.365Z,991.24
2017-03-02T09:52:54.142Z,991.35
2017-03-02T09:53:54.171Z,991.39
2017-03-02T09:54:54.195Z,991.26
2017-03-02T09:55:54.224Z,991.43
2017-03-02T09:56:54.500Z,991.43
2017-03-02T09:57:54.278Z,991.35
2017-03-02T09:58:54.306Z,991.38
2017-03-02T09:59:54.327Z,991.48
2017-03-02T10:00:54.358Z,991.39
2017-03-02T10:01:54.640Z,991.44
2017-03-02T10:02:54.413Z,991.58
2017-03-02T10:03:54.441Z,991.46
2017-03-02T10:04:54.471Z,991.45
2017-03-02T10:05:54.496Z,991.41
2017-03-02T10:06:54.767Z,991.48
2017-03-02T10:07:54.549Z,991.48
2017-03-02T10:08:54.578Z,991.41
2017-03-02T10:09:54.599Z,991.65
2017-03-02T10:10:54.632Z,991.61
2017-03-02T10:11:54.908Z,991.72
2017-03-02T10:12:54.685Z,991.78
2017-03-02T10:13:54.710Z,991.6
2017-03-02T10:14:54.736Z,991.52
2017-03-02T10:15:54.767Z,991.64
2017-03-02T10:16:55.044Z,991.61
2017-03-02T10:17:54.822Z,991.62
2017-03-02T10:18:54.846Z,991.73
2017-03-02T10:19:54.875Z,991.79
2017-03-02T10:20:54.899Z,991.71
2017-03-02T10:21:55.178Z,991.75
2017-03-02T10:22:54.955Z,991.72
2017-03-02T10:23:54.982Z,991.81
2017-03-02T10:24:55.007Z,991.74
2017-03-02T10:25:55.035Z,991.85
2017-03-02T10:26:55.062Z,991.86
2017-03-02T10:27:55.088Z,991.65
2017-03-02T10:28:55.117Z,991.75
2017-03-02T10:29:55.142Z,991.72
2017-03-02T10:30:55.170Z,991.78
2017-03-02T10:31:55.194Z,991.69
2017-03-02T10:32:55.225Z,991.82
2017-03-02T10:33:55.249Z,991.77
2017-03-02T10:34:55.279Z,991.86
2017-03-02T10:35:55.303Z,991.91
2017-03-02T10:36:55.332Z,991.98
2017-03-02T10:37:55.359Z,991.97
2017-03-02T10:38:55.385Z,991.93
2017-03-02T10:39:55.414Z,991.81
2017-03-02T10:40:55.439Z,991.81
2017-03-02T10:41:55.469Z,992.04
2017-03-02T10:42:55.492Z,992.04
2017-03-02T10:43:55.521Z,992.05
2017-03-02T10:44:55.548Z,991.94
2017-03-02T10:45:55.575Z,992.14
2017-03-02T10:46:55.603Z,991.98
2017-03-02T10:47:55.628Z,992.01
2017-03-02T10:48:55.656Z,991.98
2017-03-02T10:49:55.679Z,992.04
2017-03-02T10:50:55.704Z,992.13
2017-03-02T10:51:55.738Z,992.23
2017-03-02T10:52:55.764Z,992.08
2017-03-02T10:53:55.792Z,992.09
2017-03-02T10:54:55.817Z,992.51
2017-03-02T10:55:55.845Z,992.05
2017-03-02T10:56:55.875Z,991.94
2017-03-02T10:57:55.900Z,991.96
2017-03-02T10:58:55.928Z,992.03
2017-03-02T10:59:55.956Z,991.97
2017-03-02T11:00:55.982Z,992.17
2017-03-02T11:01:56.011Z,992.1
2017-03-02T11:02:56.040Z,992.24
2017-03-02T11:03:56.064Z,992.04
2017-03-02T11:04:56.096Z,992.07
2017-03-02T11:05:56.118Z,992.15
2017-03-02T11:06:56.146Z,992.23
2017-03-02T11:07:56.172Z,992.14
2017-03-02T11:08:56.200Z,992.07
2017-03-02T11:09:56.230Z,992.23
2017-03-02T11:10:56.257Z,992.15
2017-03-02T11:11:56.278Z,992.18
2017-03-02T11:12:56.312Z,992.19
2017-03-02T11:13:56.336Z,992.11
2017-03-02T11:14:56.364Z,992.1
2017-03-02T11:15:56.389Z,992.06
2017-03-02T11:16:56.414Z,992.1
2017-03-02T11:17:56.447Z,992.31
2017-03-02T11:18:56.478Z,992.35
2017-03-02T11:19:56.501Z,992.44
2017-03-02T11:20:56.526Z,992.35
2017-03-02T11:21:56.554Z,992.29
2017-03-02T11:22:56.579Z,992.2
2017-03-02T11:23:56.608Z,992.12
2017-03-02T11:24:56.653Z,992.16
2017-03-02T11:25:56.660Z,992.19
2017-03-02T11:26:56.690Z,992.2
2017-03-02T11:27:56.714Z,992.38
2017-03-02T11:28:56.743Z,992.53
2017-03-02T11:29:56.772Z,992.59
2017-03-02T11:30:56.797Z,992.37
2017-03-02T11:31:56.826Z,992.24
2017-03-02T11:32:56.854Z,992.31
2017-03-02T11:33:56.880Z,992.3
2017-03-02T11:34:56.908Z,992.32
2017-03-02T11:35:56.931Z,992.24
2017-03-02T11:36:56.962Z,992.23
2017-03-02T11:37:56.990Z,992.3
2017-03-02T11:38:57.015Z,992.26
2017-03-02T11:39:57.044Z,992.29
2017-03-02T11:40:57.069Z,992.27
2017-03-02T11:41:57.095Z,992.52
2017-03-02T11:42:57.377Z,992.56
2017-03-02T11:43:57.151Z,992.47
2017-03-02T11:44:57.179Z,992.47
2017-03-02T11:45:57.207Z,992.3
2017-03-02T11:46:57.237Z,992.65
2017-03-02T11:47:57.514Z,992.58
2017-03-02T11:48:57.291Z,992.62
2017-03-02T11:49:57.320Z,992.6
2017-03-02T11:50:57.344Z,992.51
2017-03-02T11:51:57.372Z,992.6
2017-03-02T11:52:57.653Z,992.61
2017-03-02T11:53:57.431Z,992.58
2017-03-02T11:54:57.455Z,992.61
2017-03-02T11:55:57.483Z,992.67
2017-03-02T11:56:57.513Z,992.91
2017-03-02T11:57:57.789Z,992.92
2017-03-02T11:58:57.563Z,992.9
2017-03-02T11:59:57.595Z,992.84
2017-03-02T12:00:57.622Z,993.06
2017-03-02T12:01:57.653Z,993.08
2017-03-02T12:02:57.928Z,992.55
2017-03-02T12:03:57.706Z,992.98
2017-03-02T12:04:57.734Z,993.09
2017-03-02T12:05:57.763Z,993.01
2017-03-02T12:06:57.788Z,993.12
2017-03-02T12:07:58.069Z,992.95
2017-03-02T12:08:57.845Z,992.66
2017-03-02T12:09:57.872Z,992.61
2017-03-02T12:10:57.899Z,992.51
2017-03-02T12:11:57.927Z,992.84
2017-03-02T12:12:58.209Z,992.79
2017-03-02T12:13:58.005Z,992.51
2017-03-02T12:14:58.015Z,992.36
2017-03-02T12:15:58.045Z,992.31
2017-03-02T12:16:58.072Z,992.28
2017-03-02T12:17:58.104Z,992.37
2017-03-02T12:18:58.122Z,992.44
2017-03-02T12:19:58.155Z,992.71
2017-03-02T12:20:58.181Z,992.44
2017-03-02T12:21:58.213Z,992.41
2017-03-02T12:22:58.236Z,992.41
2017-03-02T12:23:58.304Z,992.58
2017-03-02T12:24:58.297Z,992.5
2017-03-02T12:25:58.328Z,992.41
2017-03-02T12:26:58.352Z,992.34
2017-03-02T12:27:58.384Z,992.38
2017-03-02T12:28:58.409Z,992.45
2017-03-02T12:29:58.435Z,992.53
2017-03-02T12:30:58.463Z,992.47
2017-03-02T12:31:58.495Z,992.34